createdAt,value
2019-05-19T00:00:59.118Z,1001.12
2019-05-19T00:01:59.109Z,1001.11
2019-05-19T00:02:59.107Z,1001.10
2019-05-19T00:03:59.124Z,1001.06
2019-05-19T00:04:59.091Z,1001.09
2019-05-19T00:05:59.069Z,1001.12
2019-05-19T00:06:59.069Z,1001.10
2019-05-19T00:07:59.055Z,1001.13
2019-05-19T00:08:59.041Z,1001.17
2019-05-19T00:09:59.016Z,1001.08
2019-05-19T00:10:59.049Z,1001.11
2019-05-19T00:11:59.006Z,1001.17
2019-05-19T00:12:58.998Z,1001.13
2019-05-19T00:13:58.980Z,1001.21
2019-05-19T00:14:58.963Z,1001.22
2019-05-19T00:15:58.980Z,1001.20
2019-05-19T00:16:58.956Z,1001.19
2019-05-19T00:17:58.936Z,1001.17
2019-05-19T00:18:58.921Z,1001.24
2019-05-19T00:19:58.913Z,1001.23
2019-05-19T00:20:58.892Z,1001.23
2019-05-19T00:21:58.949Z,1001.24
2019-05-19T00:22:58.878Z,1001.28
2019-05-19T00:23:59.880Z,1001.24
2019-05-19T00:24:58.847Z,1001.22
2019-05-19T00:25:58.901Z,1001.24
2019-05-19T00:26:58.837Z,1001.25
2019-05-19T00:27:58.825Z,1001.14
2019-05-19T00:28:58.815Z,1001.19
2019-05-19T00:29:58.797Z,1001.18
2019-05-19T00:30:58.784Z,1001.16
2019-05-19T00:31:58.784Z,1001.25
2019-05-19T00:32:58.781Z,1001.23
2019-05-19T00:33:58.758Z,1001.21
2019-05-19T00:34:58.742Z,1001.21
2019-05-19T00:35:58.747Z,1001.24
2019-05-19T00:36:58.713Z,1001.17
2019-05-19T00:37:58.776Z,1001.17
2019-05-19T00:38:58.716Z,1001.15
2019-05-19T00:39:58.690Z,1001.14
2019-05-19T00:40:58.685Z,1001.14
2019-05-19T00:41:58.658Z,1001.15
2019-05-19T00:42:58.657Z,1001.12
2019-05-19T00:43:58.647Z,1001.09
2019-05-19T00:44:58.637Z,1001.17
2019-05-19T00:45:58.618Z,1001.14
2019-05-19T00:46:58.614Z,1001.17
2019-05-19T00:47:58.604Z,1001.12
2019-05-19T00:48:58.593Z,1001.17
2019-05-19T00:49:58.579Z,1001.14
2019-05-19T00:50:58.590Z,1001.19
2019-05-19T00:51:58.564Z,1001.17
2019-05-19T00:52:58.549Z,1001.13
2019-05-19T00:53:58.566Z,1001.20
2019-05-19T00:54:58.522Z,1001.18
2019-05-19T00:55:58.525Z,1001.22
2019-05-19T00:56:58.507Z,1001.17
2019-05-19T00:57:58.531Z,1001.08
2019-05-19T00:58:58.479Z,1001.10
2019-05-19T00:59:58.464Z,1001.14
2019-05-19T01:00:58.456Z,1001.09
2019-05-19T01:01:58.448Z,1001.08
2019-05-19T01:02:58.464Z,1001.05
2019-05-19T01:03:58.428Z,1001.07
2019-05-19T01:04:58.411Z,1001.04
2019-05-19T01:05:58.406Z,1001.09
2019-05-19T01:06:58.438Z,1001.06
2019-05-19T01:07:58.395Z,1001.08
2019-05-19T01:08:58.371Z,1001.05
2019-05-19T01:09:58.362Z,1001.09
2019-05-19T01:10:58.345Z,1001.07
2019-05-19T01:11:58.333Z,1001.06
2019-05-19T01:12:58.334Z,1001.04
2019-05-19T01:13:58.323Z,1001.20
2019-05-19T01:14:58.296Z,1001.11
2019-05-19T01:15:58.290Z,1001.15
2019-05-19T01:16:58.280Z,1001.13
2019-05-19T01:17:58.264Z,1001.07
2019-05-19T01:18:58.284Z,1001.07
2019-05-19T01:19:58.264Z,1001.09
2019-05-19T01:20:58.242Z,1001.08
2019-05-19T01:21:58.222Z,1001.10
2019-05-19T01:22:58.218Z,1001.11
2019-05-19T01:23:58.203Z,1001.02
2019-05-19T01:24:58.213Z,1001.07
2019-05-19T01:25:58.186Z,1001.11
2019-05-19T01:26:58.174Z,1001.07
2019-05-19T01:27:58.170Z,1001.11
2019-05-19T01:28:58.146Z,1001.10
2019-05-19T01:29:58.142Z,1001.15
2019-05-19T01:30:58.128Z,1001.10
2019-05-19T01:31:58.112Z,1001.05
2019-05-19T01:32:58.102Z,1001.04
2019-05-19T01:33:58.138Z,1001.04
2019-05-19T01:34:58.086Z,1001.04
2019-05-19T01:35:58.074Z,1001.02
2019-05-19T01:36:58.117Z,1001.06
2019-05-19T01:37:58.082Z,1001.12
2019-05-19T01:38:58.066Z,1000.94
2019-05-19T01:39:58.022Z,1001.02
2019-05-19T01:40:58.012Z,1001.01
2019-05-19T01:41:58.015Z,1000.97
2019-05-19T01:42:57.998Z,1001.01
2019-05-19T01:43:57.994Z,1000.98
2019-05-19T01:44:57.977Z,1001.05
2019-05-19T01:45:57.960Z,1001.03
2019-05-19T01:46:57.964Z,1001.02
2019-05-19T01:47:57.949Z,1001.05
2019-05-19T01:48:57.936Z,1001.03
2019-05-19T01:50:16.593Z,1001.06
2019-05-19T01:50:58.902Z,1001.04
2019-05-19T01:51:57.903Z,1001.07
2019-05-19T01:52:57.886Z,1001.03
2019-05-19T01:53:57.886Z,1001.02
2019-05-19T01:54:57.917Z,1001.03
2019-05-19T01:55:57.851Z,1000.98
2019-05-19T01:56:57.844Z,1000.95
2019-05-19T01:57:57.828Z,1000.91
2019-05-19T01:58:57.833Z,1000.96
2019-05-19T01:59:57.800Z,1000.93
2019-05-19T02:00:57.804Z,1000.93
2019-05-19T02:01:57.791Z,1000.96
2019-05-19T02:02:57.775Z,1000.94
2019-05-19T02:03:57.784Z,1000.93
2019-05-19T02:04:57.763Z,1000.94
2019-05-19T02:05:57.745Z,1001.00
2019-05-19T02:06:57.742Z,1000.98
2019-05-19T02:07:57.738Z,1000.96
2019-05-19T02:08:57.707Z,1000.96
2019-05-19T02:09:57.699Z,1000.98
2019-05-19T02:10:57.739Z,1000.88
2019-05-19T02:11:57.695Z,1000.86
2019-05-19T02:12:57.680Z,1000.88
2019-05-19T02:13:57.679Z,1000.86
2019-05-19T02:14:57.638Z,1000.89
2019-05-19T02:15:57.643Z,1000.92
2019-05-19T02:16:57.637Z,1000.90
2019-05-19T02:17:57.625Z,1000.86
2019-05-19T02:18:57.604Z,1000.89
2019-05-19T02:19:57.589Z,1000.91
2019-05-19T02:20:57.573Z,1000.82
2019-05-19T02:21:57.569Z,1000.85
2019-05-19T02:22:57.555Z,1000.84
2019-05-19T02:23:57.566Z,1000.80
2019-05-19T02:24:57.535Z,1000.82
2019-05-19T02:25:57.525Z,1000.81
2019-05-19T02:26:57.585Z,1000.88
2019-05-19T02:27:57.500Z,1000.88
2019-05-19T02:28:57.497Z,1000.88
2019-05-19T02:29:57.479Z,1000.86
2019-05-19T02:30:57.473Z,1000.84
2019-05-19T02:31:57.494Z,1000.89
2019-05-19T02:32:57.450Z,1000.89
2019-05-19T02:33:57.444Z,1000.98
2019-05-19T02:34:57.424Z,1000.92
2019-05-19T02:35:57.416Z,1000.90
2019-05-19T02:36:57.403Z,1000.96
2019-05-19T02:37:57.398Z,1000.91
2019-05-19T02:38:57.384Z,1000.95
2019-05-19T02:39:57.409Z,1000.98
2019-05-19T02:40:57.367Z,1000.92
2019-05-19T02:41:57.395Z,1000.96
2019-05-19T02:42:57.337Z,1000.97
2019-05-19T02:43:57.375Z,1001.00
2019-05-19T02:44:57.352Z,1000.95
2019-05-19T02:45:57.302Z,1000.92
2019-05-19T02:46:57.297Z,1000.94
2019-05-19T02:47:57.318Z,1000.97
2019-05-19T02:48:57.274Z,1000.93
2019-05-19T02:49:57.281Z,1000.88
2019-05-19T02:50:57.250Z,1000.94
2019-05-19T02:51:57.240Z,1000.90
2019-05-19T02:52:57.237Z,1000.97
2019-05-19T02:53:57.234Z,1000.97
2019-05-19T02:54:57.214Z,1000.95
2019-05-19T02:55:57.218Z,1000.95
2019-05-19T02:56:57.185Z,1000.90
2019-05-19T02:57:57.173Z,1000.85
2019-05-19T02:58:57.174Z,1000.97
2019-05-19T02:59:57.145Z,1000.90
2019-05-19T03:00:57.146Z,1000.95
2019-05-19T03:01:57.152Z,1000.93
2019-05-19T03:02:57.123Z,1000.91
2019-05-19T03:03:57.119Z,1000.89
2019-05-19T03:04:57.133Z,1000.85
2019-05-19T03:05:57.086Z,1000.79
2019-05-19T03:06:57.085Z,1000.83
2019-05-19T03:07:57.060Z,1000.84
2019-05-19T03:08:57.054Z,1000.83
2019-05-19T03:09:57.044Z,1000.80
2019-05-19T03:10:57.031Z,1000.79
2019-05-19T03:11:57.018Z,1000.76
2019-05-19T03:12:57.015Z,1000.84
2019-05-19T03:13:57.017Z,1000.83
2019-05-19T03:14:56.989Z,1000.85
2019-05-19T03:15:56.989Z,1000.84
2019-05-19T03:16:56.977Z,1000.88
2019-05-19T03:17:56.954Z,1000.83
2019-05-19T03:18:56.950Z,1000.86
2019-05-19T03:19:56.930Z,1000.80
2019-05-19T03:21:10.423Z,1000.88
2019-05-19T03:21:57.910Z,1000.91
2019-05-19T03:22:56.900Z,1000.81
2019-05-19T03:23:56.889Z,1000.91
2019-05-19T03:24:56.883Z,1000.90
2019-05-19T03:25:56.865Z,1000.87
2019-05-19T03:26:56.859Z,1000.89
2019-05-19T03:27:56.960Z,1000.89
2019-05-19T03:28:56.831Z,1000.92
2019-05-19T03:29:56.846Z,1000.91
2019-05-19T03:30:56.851Z,1000.87
2019-05-19T03:31:56.805Z,1000.91
2019-05-19T03:32:56.811Z,1000.96
2019-05-19T03:33:56.795Z,1000.96
2019-05-19T03:34:56.769Z,1000.99
2019-05-19T03:35:56.770Z,1001.02
2019-05-19T03:36:56.772Z,1001.00
2019-05-19T03:37:56.737Z,1001.04
2019-05-19T03:38:56.759Z,1001.03
2019-05-19T03:39:56.713Z,1001.00
2019-05-19T03:40:56.728Z,1000.99
2019-05-19T03:41:56.700Z,1001.03
2019-05-19T03:42:56.683Z,1001.06
2019-05-19T03:43:56.670Z,1001.03
2019-05-19T03:44:56.672Z,1001.01
2019-05-19T03:45:56.650Z,1001.00
2019-05-19T03:46:56.638Z,1001.04
2019-05-19T03:47:56.627Z,1001.06
2019-05-19T03:48:56.611Z,1001.07
2019-05-19T03:49:56.605Z,1001.05
2019-05-19T03:50:56.605Z,1001.07
2019-05-19T03:51:56.583Z,1001.04
2019-05-19T03:52:56.567Z,1001.07
2019-05-19T03:53:56.549Z,1001.07
2019-05-19T03:54:56.553Z,1001.06
2019-05-19T03:55:56.539Z,1001.00
2019-05-19T03:56:56.532Z,1001.01
2019-05-19T03:57:56.512Z,1000.95
2019-05-19T03:58:56.517Z,1001.05
2019-05-19T03:59:56.490Z,1000.98
2019-05-19T04:00:56.489Z,1000.99
2019-05-19T04:01:56.481Z,1001.02
2019-05-19T04:02:56.453Z,1001.05
2019-05-19T04:03:56.450Z,1001.02
2019-05-19T04:04:56.439Z,1001.00
2019-05-19T04:05:56.431Z,1000.99
2019-05-19T04:06:56.418Z,1001.06
2019-05-19T04:07:56.404Z,1001.07
2019-05-19T04:08:56.400Z,1001.08
2019-05-19T04:09:56.390Z,1001.11
2019-05-19T04:10:56.399Z,1001.10
2019-05-19T04:11:56.353Z,1001.08
2019-05-19T04:12:56.358Z,1001.11
2019-05-19T04:13:56.341Z,1001.14
2019-05-19T04:14:56.327Z,1001.15
2019-05-19T04:15:56.319Z,1001.10
2019-05-19T04:16:56.303Z,1001.20
2019-05-19T04:17:56.301Z,1001.17
2019-05-19T04:18:56.302Z,1001.15
2019-05-19T04:19:56.270Z,1001.18
2019-05-19T04:20:56.267Z,1001.18
2019-05-19T04:21:56.314Z,1001.07
2019-05-19T04:22:56.248Z,1001.20
2019-05-19T04:23:56.230Z,1001.15
2019-05-19T04:24:56.221Z,1001.12
2019-05-19T04:25:56.210Z,1001.14
2019-05-19T04:26:56.192Z,1001.16
2019-05-19T04:27:56.193Z,1001.14
2019-05-19T04:28:56.185Z,1001.11
2019-05-19T04:29:56.158Z,1001.14
2019-05-19T04:30:56.143Z,1001.15
2019-05-19T04:31:56.137Z,1001.22
2019-05-19T04:32:56.123Z,1001.12
2019-05-19T04:33:56.165Z,1001.13
2019-05-19T04:34:56.106Z,1001.14
2019-05-19T04:35:57.487Z,1001.14
2019-05-19T04:36:56.077Z,1001.15
2019-05-19T04:37:56.075Z,1001.15
2019-05-19T04:38:56.161Z,1001.22
2019-05-19T04:39:56.052Z,1001.23
2019-05-19T04:40:56.050Z,1001.16
2019-05-19T04:41:56.027Z,1001.15
2019-05-19T04:42:56.012Z,1001.19
2019-05-19T04:43:56.016Z,1001.14
2019-05-19T04:44:55.991Z,1001.19
2019-05-19T04:45:56.023Z,1001.12
2019-05-19T04:46:55.993Z,1001.04
2019-05-19T04:47:55.961Z,1001.13
2019-05-19T04:48:55.958Z,1001.14
2019-05-19T04:49:55.941Z,1001.12
2019-05-19T04:50:55.933Z,1001.10
2019-05-19T04:52:05.883Z,1001.05
2019-05-19T04:52:56.906Z,1001.11
2019-05-19T04:53:55.891Z,1001.12
2019-05-19T04:54:55.885Z,1001.06
2019-05-19T04:55:55.886Z,1001.05
2019-05-19T04:56:55.858Z,1001.07
2019-05-19T04:57:55.864Z,1001.11
2019-05-19T04:58:55.840Z,1001.01
2019-05-19T04:59:55.825Z,1001.00
2019-05-19T05:00:55.825Z,1001.01
2019-05-19T05:01:55.835Z,1000.99
2019-05-19T05:02:55.815Z,1001.04
2019-05-19T05:03:55.804Z,1000.99
2019-05-19T05:04:55.774Z,1001.03
2019-05-19T05:05:55.760Z,1000.96
2019-05-19T05:06:55.755Z,1000.99
2019-05-19T05:07:55.736Z,1000.97
2019-05-19T05:08:55.727Z,1000.97
2019-05-19T05:09:55.718Z,1000.98
2019-05-19T05:10:55.712Z,1000.92
2019-05-19T05:11:55.700Z,1000.93
2019-05-19T05:12:55.688Z,1000.98
2019-05-19T05:13:55.676Z,1000.97
2019-05-19T05:14:55.662Z,1000.97
2019-05-19T05:15:55.660Z,1000.92
2019-05-19T05:16:55.647Z,1000.93
2019-05-19T05:17:55.644Z,1000.99
2019-05-19T05:18:55.621Z,1001.01
2019-05-19T05:19:55.613Z,1001.06
2019-05-19T05:20:55.604Z,1001.04
2019-05-19T05:21:55.589Z,1000.98
2019-05-19T05:22:55.578Z,1001.00
2019-05-19T05:23:55.629Z,1001.10
2019-05-19T05:24:55.564Z,1000.98
2019-05-19T05:25:55.542Z,1001.06
2019-05-19T05:26:55.550Z,1001.05
2019-05-19T05:27:55.528Z,1001.04
2019-05-19T05:28:55.514Z,1001.05
2019-05-19T05:29:55.508Z,1001.01
2019-05-19T05:30:55.502Z,1001.05
2019-05-19T05:31:55.482Z,1001.14
2019-05-19T05:32:55.467Z,1001.06
2019-05-19T05:33:55.450Z,1001.03
2019-05-19T05:34:55.444Z,1001.08
2019-05-19T05:35:55.428Z,1001.07
2019-05-19T05:36:55.429Z,1001.10
2019-05-19T05:37:55.415Z,1001.10
2019-05-19T05:38:55.406Z,1001.05
2019-05-19T05:39:55.387Z,1001.09
2019-05-19T05:40:55.386Z,1001.08
2019-05-19T05:41:55.371Z,1001.09
2019-05-19T05:42:55.358Z,1001.09
2019-05-19T05:43:55.358Z,1001.11
2019-05-19T05:44:55.360Z,1001.08
2019-05-19T05:45:55.335Z,1001.10
2019-05-19T05:46:55.319Z,1001.10
2019-05-19T05:47:55.308Z,1001.07
2019-05-19T05:48:55.300Z,1001.08
2019-05-19T05:49:55.297Z,1001.03
2019-05-19T05:50:55.268Z,1001.08
2019-05-19T05:51:55.260Z,1001.14
2019-05-19T05:52:55.248Z,1001.12
2019-05-19T05:53:55.240Z,1001.16
2019-05-19T05:54:55.229Z,1001.10
2019-05-19T05:55:55.234Z,1001.14
2019-05-19T05:56:55.205Z,1001.19
2019-05-19T05:57:55.201Z,1001.15
2019-05-19T05:58:55.172Z,1001.09
2019-05-19T05:59:55.172Z,1001.13
2019-05-19T06:00:55.174Z,1001.10
2019-05-19T06:01:55.154Z,1001.12
2019-05-19T06:02:55.135Z,1001.14
2019-05-19T06:03:55.130Z,1001.18
2019-05-19T06:04:55.113Z,1001.16
2019-05-19T06:05:55.136Z,1001.16
2019-05-19T06:06:55.152Z,1001.16
2019-05-19T06:07:55.095Z,1001.14
2019-05-19T06:08:55.074Z,1001.18
2019-05-19T06:09:55.062Z,1001.13
2019-05-19T06:10:55.050Z,1001.09
2019-05-19T06:11:55.050Z,1001.11
2019-05-19T06:12:55.037Z,1001.12
2019-05-19T06:13:55.021Z,1001.13
2019-05-19T06:14:55.001Z,1001.11
2019-05-19T06:15:54.988Z,1001.10
2019-05-19T06:16:54.993Z,1001.20
2019-05-19T06:17:54.986Z,1001.13
2019-05-19T06:18:56.768Z,1001.15
2019-05-19T06:19:54.954Z,1001.11
2019-05-19T06:20:54.945Z,1001.14
2019-05-19T06:21:54.945Z,1001.13
2019-05-19T06:22:56.819Z,1001.14
2019-05-19T06:23:54.912Z,1001.12
2019-05-19T06:24:54.925Z,1001.11
2019-05-19T06:25:54.880Z,1001.17
2019-05-19T06:26:54.880Z,1001.13
2019-05-19T06:27:54.879Z,1001.14
2019-05-19T06:28:54.850Z,1001.06
2019-05-19T06:29:54.848Z,1001.15
2019-05-19T06:30:54.847Z,1001.08
2019-05-19T06:31:54.819Z,1001.15
2019-05-19T06:32:54.800Z,1001.13
2019-05-19T06:33:54.794Z,1001.15
2019-05-19T06:34:54.781Z,1001.10
2019-05-19T06:35:54.775Z,1001.18
2019-05-19T06:36:55.218Z,1001.13
2019-05-19T06:37:54.750Z,1001.17
2019-05-19T06:38:54.729Z,1001.10
2019-05-19T06:39:54.725Z,1001.10
2019-05-19T06:40:54.725Z,1001.14
2019-05-19T06:41:54.714Z,1001.14
2019-05-19T06:42:54.775Z,1001.07
2019-05-19T06:43:54.678Z,1001.12
2019-05-19T06:44:54.672Z,1001.09
2019-05-19T06:45:54.653Z,1001.12
2019-05-19T06:46:54.650Z,1001.10
2019-05-19T06:47:54.640Z,1001.10
2019-05-19T06:48:54.627Z,1001.12
2019-05-19T06:49:54.625Z,1001.07
2019-05-19T06:50:54.608Z,1001.06
2019-05-19T06:51:54.622Z,1001.00
2019-05-19T06:52:54.596Z,1001.06
2019-05-19T06:53:54.574Z,1001.00
2019-05-19T06:54:54.580Z,1000.95
2019-05-19T06:55:54.544Z,1000.98
2019-05-19T06:56:54.554Z,1000.99
2019-05-19T06:57:54.519Z,1000.97
2019-05-19T06:58:54.522Z,1001.01
2019-05-19T06:59:54.516Z,1001.01
2019-05-19T07:00:54.526Z,1001.07
2019-05-19T07:01:54.480Z,1001.07
2019-05-19T07:02:54.472Z,1001.06
2019-05-19T07:03:54.461Z,1001.01
2019-05-19T07:04:54.457Z,1001.06
2019-05-19T07:05:54.451Z,1001.04
2019-05-19T07:06:54.473Z,1001.00
2019-05-19T07:07:54.423Z,1001.02
2019-05-19T07:08:54.407Z,1001.02
2019-05-19T07:09:58.637Z,1000.97
2019-05-19T07:10:54.385Z,1000.99
2019-05-19T07:11:54.373Z,1001.02
2019-05-19T07:12:54.355Z,1000.97
2019-05-19T07:13:54.389Z,1000.98
2019-05-19T07:14:54.356Z,1000.93
2019-05-19T07:15:54.341Z,1000.91
2019-05-19T07:16:54.330Z,1000.94
2019-05-19T07:17:54.325Z,1000.98
2019-05-19T07:18:54.335Z,1000.90
2019-05-19T07:19:54.284Z,1000.89
2019-05-19T07:20:54.287Z,1000.92
2019-05-19T07:21:54.257Z,1000.95
2019-05-19T07:22:54.290Z,1000.93
2019-05-19T07:23:54.251Z,1000.85
2019-05-19T07:24:54.237Z,1000.84
2019-05-19T07:25:54.219Z,1000.84
2019-05-19T07:26:54.209Z,1000.83
2019-05-19T07:27:54.199Z,1000.87
2019-05-19T07:28:54.195Z,1000.83
2019-05-19T07:29:54.238Z,1000.87
2019-05-19T07:30:54.177Z,1000.90
2019-05-19T07:31:54.148Z,1000.89
2019-05-19T07:32:54.186Z,1000.88
2019-05-19T07:33:54.133Z,1000.84
2019-05-19T07:34:54.129Z,1000.86
2019-05-19T07:35:54.101Z,1000.89
2019-05-19T07:36:54.123Z,1000.84
2019-05-19T07:37:54.100Z,1000.86
2019-05-19T07:38:54.066Z,1000.83
2019-05-19T07:39:54.084Z,1000.89
2019-05-19T07:40:54.064Z,1000.78
2019-05-19T07:41:54.038Z,1000.84
2019-05-19T07:42:54.026Z,1000.84
2019-05-19T07:43:54.034Z,1000.90
2019-05-19T07:44:54.023Z,1000.85
2019-05-19T07:45:54.007Z,1000.86
2019-05-19T07:46:53.986Z,1000.84
2019-05-19T07:47:53.968Z,1000.85
2019-05-19T07:48:53.966Z,1000.89
2019-05-19T07:49:53.973Z,1000.86
2019-05-19T07:50:53.941Z,1000.88
2019-05-19T07:51:53.935Z,1000.84
2019-05-19T07:52:53.918Z,1000.89
2019-05-19T07:53:53.906Z,1000.86
2019-05-19T07:54:53.901Z,1000.84
2019-05-19T07:55:53.889Z,1000.84
2019-05-19T07:56:53.868Z,1000.84
2019-05-19T07:57:53.872Z,1000.89
2019-05-19T07:58:53.875Z,1000.83
2019-05-19T07:59:54.914Z,1000.81
2019-05-19T08:00:53.841Z,1000.73
2019-05-19T08:01:53.862Z,1000.75
2019-05-19T08:02:53.810Z,1000.74
2019-05-19T08:03:53.790Z,1000.75
2019-05-19T08:04:53.784Z,1000.77
2019-05-19T08:05:56.894Z,1000.76
2019-05-19T08:06:53.769Z,1000.81
2019-05-19T08:07:53.753Z,1000.79
2019-05-19T08:08:53.741Z,1000.84
2019-05-19T08:09:53.745Z,1000.76
2019-05-19T08:10:53.715Z,1000.73
2019-05-19T08:11:53.715Z,1000.67
2019-05-19T08:12:53.716Z,1000.75
2019-05-19T08:13:53.686Z,1000.73
2019-05-19T08:14:53.713Z,1000.64
2019-05-19T08:15:53.657Z,1000.68
2019-05-19T08:16:53.653Z,1000.66
2019-05-19T08:17:53.643Z,1000.62
2019-05-19T08:18:53.640Z,1000.68
2019-05-19T08:19:53.620Z,1000.62
2019-05-19T08:20:53.608Z,1000.64
2019-05-19T08:21:53.605Z,1000.71
2019-05-19T08:22:53.589Z,1000.64
2019-05-19T08:24:00.453Z,1000.68
2019-05-19T08:24:54.587Z,1000.67
2019-05-19T08:25:53.553Z,1000.69
2019-05-19T08:26:53.542Z,1000.72
2019-05-19T08:27:53.532Z,1000.73
2019-05-19T08:28:53.530Z,1000.69
2019-05-19T08:29:53.539Z,1000.75
2019-05-19T08:30:53.503Z,1000.69
2019-05-19T08:31:53.537Z,1000.71
2019-05-19T08:32:53.468Z,1000.77
2019-05-19T08:33:53.478Z,1000.73
2019-05-19T08:34:53.451Z,1000.67
2019-05-19T08:35:53.451Z,1000.71
2019-05-19T08:36:53.435Z,1000.68
2019-05-19T08:37:53.426Z,1000.73
2019-05-19T08:38:53.410Z,1000.71
2019-05-19T08:39:53.408Z,1000.74
2019-05-19T08:40:53.449Z,1000.65
2019-05-19T08:41:53.397Z,1000.68
2019-05-19T08:42:53.367Z,1000.67
2019-05-19T08:43:53.576Z,1000.57
2019-05-19T08:44:53.337Z,1000.56
2019-05-19T08:45:53.338Z,1000.58
2019-05-19T08:46:53.337Z,1000.62
2019-05-19T08:47:53.315Z,1000.57
2019-05-19T08:48:53.341Z,1000.55
2019-05-19T08:49:53.295Z,1000.69
2019-05-19T08:50:53.274Z,1000.61
2019-05-19T08:51:53.276Z,1000.68
2019-05-19T08:52:53.282Z,1000.59
2019-05-19T08:53:53.246Z,1000.70
2019-05-19T08:54:53.238Z,1000.64
2019-05-19T08:55:53.231Z,1000.62
2019-05-19T08:56:53.300Z,1000.61
2019-05-19T08:57:53.210Z,1000.58
2019-05-19T08:58:53.205Z,1000.64
2019-05-19T08:59:53.184Z,1000.62
2019-05-19T09:00:53.168Z,1000.63
2019-05-19T09:01:53.156Z,1000.75
2019-05-19T09:02:53.142Z,1000.63
2019-05-19T09:03:53.140Z,1000.65
2019-05-19T09:04:53.120Z,1000.64
2019-05-19T09:05:53.120Z,1000.73
2019-05-19T09:06:53.098Z,1000.66
2019-05-19T09:07:53.096Z,1000.56
2019-05-19T09:08:53.081Z,1000.71
2019-05-19T09:09:53.086Z,1000.72
2019-05-19T09:10:53.052Z,1000.70
2019-05-19T09:11:53.054Z,1000.66
2019-05-19T09:12:53.045Z,1000.67
2019-05-19T09:13:53.034Z,1000.65
2019-05-19T09:14:53.022Z,1000.67
2019-05-19T09:15:53.012Z,1000.69
2019-05-19T09:16:52.998Z,1000.58
2019-05-19T09:17:54.263Z,1000.58
2019-05-19T09:18:52.978Z,1000.62
2019-05-19T09:19:52.960Z,1000.63
2019-05-19T09:20:52.948Z,1000.59
2019-05-19T09:21:52.931Z,1000.61
2019-05-19T09:22:52.928Z,1000.61
2019-05-19T09:23:52.916Z,1000.59
2019-05-19T09:24:52.904Z,1000.57
2019-05-19T09:25:52.894Z,1000.48
2019-05-19T09:26:52.882Z,1000.43
2019-05-19T09:27:52.866Z,1000.46
2019-05-19T09:28:52.858Z,1000.50
2019-05-19T09:29:52.848Z,1000.51
2019-05-19T09:30:52.829Z,1000.53
2019-05-19T09:31:52.835Z,1000.49
2019-05-19T09:32:52.818Z,1000.61
2019-05-19T09:33:52.800Z,1000.52
2019-05-19T09:34:52.796Z,1000.42
2019-05-19T09:35:52.850Z,1000.44
2019-05-19T09:36:52.774Z,1000.39
2019-05-19T09:37:52.765Z,1000.39
2019-05-19T09:38:52.754Z,1000.38
2019-05-19T09:39:52.737Z,1000.43
2019-05-19T09:40:52.722Z,1000.38
2019-05-19T09:41:52.726Z,1000.38
2019-05-19T09:42:52.710Z,1000.34
2019-05-19T09:43:52.702Z,1000.45
2019-05-19T09:44:52.683Z,1000.32
2019-05-19T09:45:52.672Z,1000.36
2019-05-19T09:46:52.659Z,1000.32
2019-05-19T09:47:52.682Z,1000.30
2019-05-19T09:48:52.631Z,1000.34
2019-05-19T09:49:52.649Z,1000.32
2019-05-19T09:50:52.631Z,1000.25
2019-05-19T09:51:52.757Z,1000.27
2019-05-19T09:52:52.600Z,1000.29
2019-05-19T09:53:52.595Z,1000.23
2019-05-19T09:54:52.605Z,1000.23
2019-05-19T09:55:52.597Z,1000.33
2019-05-19T09:56:52.569Z,1000.28
2019-05-19T09:57:52.550Z,1000.30
2019-05-19T09:58:52.543Z,1000.23
2019-05-19T09:59:52.543Z,1000.36
2019-05-19T10:00:52.522Z,1000.23
2019-05-19T10:01:52.502Z,1000.31
2019-05-19T10:02:52.492Z,1000.27
2019-05-19T10:03:52.547Z,1000.26
2019-05-19T10:04:52.463Z,1000.26
2019-05-19T10:05:52.463Z,1000.25
2019-05-19T10:06:52.482Z,1000.29
2019-05-19T10:07:52.428Z,1000.26
2019-05-19T10:08:52.426Z,1000.27
2019-05-19T10:09:52.411Z,1000.24
2019-05-19T10:10:52.400Z,1000.29
2019-05-19T10:11:52.414Z,1000.18
2019-05-19T10:12:52.408Z,1000.26
2019-05-19T10:13:52.482Z,1000.28
2019-05-19T10:14:52.358Z,1000.21
2019-05-19T10:15:52.422Z,1000.17
2019-05-19T10:16:52.379Z,1000.26
2019-05-19T10:17:52.347Z,1000.20
2019-05-19T10:18:52.334Z,1000.32
2019-05-19T10:19:52.298Z,1000.29
2019-05-19T10:20:52.384Z,1000.25
2019-05-19T10:21:52.303Z,1000.16
2019-05-19T10:22:52.270Z,1000.23
2019-05-19T10:23:52.270Z,1000.25
2019-05-19T10:25:10.172Z,1000.17
2019-05-19T10:25:53.235Z,1000.16
2019-05-19T10:26:52.258Z,1000.14
2019-05-19T10:27:52.212Z,1000.09
2019-05-19T10:28:52.225Z,1000.14
2019-05-19T10:29:52.214Z,1000.06
2019-05-19T10:30:52.178Z,1000.08
2019-05-19T10:31:54.349Z,1000.04
2019-05-19T10:32:52.193Z,1000.04
2019-05-19T10:33:52.171Z,999.98
2019-05-19T10:34:52.148Z,1000.00
2019-05-19T10:35:52.158Z,999.92
2019-05-19T10:36:52.127Z,1000.07
2019-05-19T10:37:52.112Z,1000.08
2019-05-19T10:38:52.096Z,999.95
2019-05-19T10:39:52.096Z,999.99
2019-05-19T10:40:52.083Z,1000.06
2019-05-19T10:41:52.087Z,1000.02
2019-05-19T10:42:52.066Z,999.98
2019-05-19T10:43:52.041Z,1000.02
2019-05-19T10:44:52.180Z,1000.00
2019-05-19T10:45:52.030Z,999.99
2019-05-19T10:46:52.075Z,1000.00
2019-05-19T10:47:52.021Z,1000.04
2019-05-19T10:48:51.983Z,1000.01
2019-05-19T10:49:51.982Z,999.95
2019-05-19T10:50:51.980Z,999.95
2019-05-19T10:51:51.954Z,999.95
2019-05-19T10:52:51.957Z,999.95
2019-05-19T10:53:51.935Z,1000.01
2019-05-19T10:54:51.927Z,999.95
2019-05-19T10:55:51.926Z,1000.03
2019-05-19T10:56:51.908Z,1000.05
2019-05-19T10:57:51.903Z,999.90
2019-05-19T10:58:51.912Z,1000.02
2019-05-19T10:59:51.867Z,999.96
2019-05-19T11:00:51.869Z,999.95
2019-05-19T11:01:51.853Z,999.93
2019-05-19T11:02:51.844Z,999.94
2019-05-19T11:03:51.923Z,999.92
2019-05-19T11:04:51.823Z,999.92
2019-05-19T11:05:51.804Z,999.94
2019-05-19T11:06:51.795Z,999.95
2019-05-19T11:07:51.814Z,999.86
2019-05-19T11:08:51.779Z,999.85
2019-05-19T11:09:51.775Z,999.82
2019-05-19T11:10:51.779Z,999.83
2019-05-19T11:11:51.855Z,999.79
2019-05-19T11:12:51.738Z,999.81
2019-05-19T11:13:51.725Z,999.77
2019-05-19T11:14:51.725Z,999.86
2019-05-19T11:15:51.709Z,999.83
2019-05-19T11:16:51.700Z,999.88
2019-05-19T11:17:51.681Z,999.82
2019-05-19T11:18:51.665Z,999.75
2019-05-19T11:19:51.663Z,999.78
2019-05-19T11:20:51.652Z,999.75
2019-05-19T11:21:51.653Z,999.75
2019-05-19T11:22:51.628Z,999.80
2019-05-19T11:23:51.619Z,999.76
2019-05-19T11:24:51.807Z,999.66
2019-05-19T11:25:52.006Z,999.73
2019-05-19T11:26:51.598Z,999.71
2019-05-19T11:27:51.583Z,999.64
2019-05-19T11:28:51.559Z,999.69
2019-05-19T11:29:51.555Z,999.66
2019-05-19T11:30:51.545Z,999.64
2019-05-19T11:31:51.534Z,999.55
2019-05-19T11:32:51.527Z,999.67
2019-05-19T11:33:51.517Z,999.68
2019-05-19T11:34:51.511Z,999.65
2019-05-19T11:35:51.483Z,999.67
2019-05-19T11:36:51.477Z,999.61
2019-05-19T11:37:51.473Z,999.68
2019-05-19T11:38:51.464Z,999.61
2019-05-19T11:39:51.449Z,999.66
2019-05-19T11:40:51.429Z,999.65
2019-05-19T11:41:51.438Z,999.65
2019-05-19T11:42:51.402Z,999.57
2019-05-19T11:43:51.404Z,999.74
2019-05-19T11:44:51.387Z,999.64
2019-05-19T11:45:51.377Z,999.69
2019-05-19T11:46:51.373Z,999.68
2019-05-19T11:47:51.367Z,999.64
2019-05-19T11:48:51.350Z,999.55
2019-05-19T11:49:51.406Z,999.59
2019-05-19T11:50:51.335Z,999.51
2019-05-19T11:51:51.317Z,999.52
2019-05-19T11:52:51.320Z,999.56
2019-05-19T11:53:51.321Z,999.54
2019-05-19T11:54:51.389Z,999.56
2019-05-19T11:56:04.321Z,999.60
2019-05-19T11:56:52.299Z,999.57
2019-05-19T11:57:51.275Z,999.64
2019-05-19T11:58:51.240Z,999.56
2019-05-19T11:59:51.249Z,999.52
2019-05-19T12:00:51.215Z,999.51
2019-05-19T12:01:51.219Z,999.48
2019-05-19T12:02:51.254Z,999.50
2019-05-19T12:03:51.253Z,999.51
2019-05-19T12:04:51.196Z,999.44
2019-05-19T12:05:51.158Z,999.48
2019-05-19T12:06:51.175Z,999.46
2019-05-19T12:07:51.208Z,999.39
2019-05-19T12:08:51.205Z,999.44